Iwanui, Waitara Historical Data
 
Daily Summary for September 24, 2018 Units:  Metric    English   Both
« Previous Day
Next Day »
Daily Weekly Monthly Yearly Custom
  Current: High: Low: Average:
Temperature: 12.5 °C 12.6 °C 12.3 °C 12.4 °C
Dew Point: 5.4 °C 6.8 °C 4.4 °C 5.8 °C
Humidity: 62% 69% 58% 64%
Wind Speed: 6.1km/h 15.8km/h 5.0km/h 9.4km/h
Wind Gust: 17.2km/h 23.3km/h - -
WindWest - - West
Pressure: 1010.4 hPa 1011.6 hPa 1010.4 hPa -
Precipitation: 0.0 mm      
Historical Graphs
 
 
Tabular Data for September 24, 2018
Time Temperature Dew Point Pressure Wind Wind Speed Wind Gust Humidity Rainfall Rate (Hourly)
00:00 12.5 °C 4.4 °C 1011.5 hPa WSW 7.2 km/h 15.8 km/h 58% 0.0 mm
00:05 12.5 °C 4.7 °C 1011.6 hPa West 9.7 km/h 15.8 km/h 59% 0.0 mm
00:09 12.4 °C 4.6 °C 1011.5 hPa West 6.1 km/h 14.8 km/h 59% 0.0 mm
00:14 12.4 °C 4.6 °C 1011.5 hPa West 7.2 km/h 13.4 km/h 59% 0.0 mm
00:19 12.4 °C 4.8 °C 1011.4 hPa West 7.2 km/h 13.4 km/h 60% 0.0 mm
00:25 12.4 °C 5.1 °C 1011.4 hPa West 6.1 km/h 11.1 km/h 61% 0.0 mm
00:29 12.4 °C 5.6 °C 1011.2 hPa West 9.7 km/h 15.8 km/h 63% 0.0 mm
00:35 12.5 °C 6.1 °C 1011.3 hPa West 8.7 km/h 15.8 km/h 65% 0.0 mm
00:40 12.5 °C 6.3 °C 1011.3 hPa West 11.1 km/h 18.3 km/h 66% 0.0 mm
00:45 12.5 °C 6.3 °C 1011.3 hPa West 9.7 km/h 19.5 km/h 66% 0.0 mm
00:49 12.5 °C 6.3 °C 1011.4 hPa WSW 15.8 km/h 21.9 km/h 66% 0.0 mm
00:55 12.5 °C 6.6 °C 1011.3 hPa WSW 14.8 km/h 21.9 km/h 67% 0.0 mm
01:00 12.3 °C 6.3 °C 1011.3 hPa WSW 8.7 km/h 23.3 km/h 67% 0.0 mm
01:04 12.3 °C 6.6 °C 1011.3 hPa WSW 12.2 km/h 23.3 km/h 68% 0.0 mm
01:09 12.3 °C 6.6 °C 1011.2 hPa West 7.2 km/h 17.2 km/h 68% 0.0 mm
01:14 12.3 °C 6.6 °C 1011.1 hPa West 7.2 km/h 17.2 km/h 68% 0.0 mm
01:19 12.3 °C 6.6 °C 1011.1 hPa WNW 12.2 km/h 17.2 km/h 68% 0.0 mm
01:24 12.3 °C 6.8 °C 1011.0 hPa WNW 11.1 km/h 18.3 km/h 69% 0.0 mm
01:29 12.4 °C 6.7 °C 1010.9 hPa WNW 12.2 km/h 18.3 km/h 68% 0.0 mm
01:34 12.4 °C 6.7 °C 1011.0 hPa West 6.1 km/h 19.5 km/h 68% 0.0 mm
01:39 12.5 °C 6.1 °C 1010.9 hPa WSW 14.8 km/h 20.9 km/h 65% 0.0 mm
01:44 12.5 °C 5.7 °C 1010.9 hPa West 9.7 km/h 20.9 km/h 63% 0.0 mm
01:49 12.6 °C 5.5 °C 1010.7 hPa West 7.2 km/h 20.9 km/h 62% 0.0 mm
01:54 12.5 °C 5.7 °C 1010.6 hPa WSW 13.4 km/h 20.9 km/h 63% 0.0 mm
01:59 12.5 °C 5.4 °C 1010.6 hPa WSW 11.1 km/h 20.9 km/h 62% 0.0 mm
02:04 12.6 °C 5.5 °C 1010.7 hPa WSW 7.2 km/h 20.9 km/h 62% 0.0 mm
02:09 12.5 °C 5.7 °C 1010.7 hPa WSW 7.2 km/h 20.9 km/h 63% 0.0 mm
02:14 12.5 °C 5.4 °C 1010.4 hPa West 7.2 km/h 15.8 km/h 62% 0.0 mm
02:19 12.5 °C 5.4 °C 1010.4 hPa West 5.0 km/h 15.8 km/h 62% 0.0 mm
02:24 12.5 °C 5.2 °C 1010.4 hPa West 13.4 km/h 17.2 km/h 61% 0.0 mm
02:29 12.5 °C 5.4 °C 1010.4 hPa West 6.1 km/h 17.2 km/h 62% 0.0 mm
Waitara, Taranaki. New Zealand Historic Data
Compliments of Weather Underground - 2 mb